Time;durP1;ratioP1;P1;durP2;ratioP2;P2;SDS_P1;SDS_P2;PMS_P1;PMS_P2;Temp;Humidity;BMP_temperature;BMP_pressure;BME280_temperature;BME280_humidity;BME280_pressure;Samples;Min_cycle;Max_cycle;Signal;HPM_P1;HPM_P2
2021/03/23 00:01:35;;;;;;;13.00;6.70;;;4.30;99.90;;;;;;5052151;28;20240;-79
2021/03/23 00:04:01;;;;;;;12.00;8.18;;;4.20;99.90;;;;;;5052590;28;20212;-77
2021/03/23 00:06:29;;;;;;;11.73;7.07;;;4.30;99.90;;;;;;5052348;28;20286;-78
2021/03/23 00:08:58;;;;;;;12.70;7.75;;;4.20;99.90;;;;;;5052662;28;20205;-78
2021/03/23 00:11:29;;;;;;;11.23;7.45;;;4.20;99.90;;;;;;5052341;28;20228;-79
2021/03/23 00:13:57;;;;;;;11.32;7.78;;;4.20;99.90;;;;;;5052805;28;20579;-79
2021/03/23 00:16:26;;;;;;;9.70;7.30;;;4.30;99.90;;;;;;5053072;28;20553;-78
2021/03/23 00:18:53;;;;;;;15.70;7.82;;;4.20;99.90;;;;;;5053346;28;20208;-78
2021/03/23 00:21:21;;;;;;;15.60;8.30;;;4.20;99.90;;;;;;5052929;28;20279;-78
2021/03/23 00:23:47;;;;;;;11.10;6.85;;;4.10;99.90;;;;;;5052128;28;20262;-78
2021/03/23 00:26:16;;;;;;;10.40;7.13;;;4.20;99.90;;;;;;5051921;28;20201;-78
2021/03/23 00:28:46;;;;;;;10.73;7.40;;;4.10;99.90;;;;;;5053067;28;20201;-79
2021/03/23 00:31:13;;;;;;;11.35;7.63;;;4.10;99.90;;;;;;5052917;28;20646;-77
2021/03/23 00:33:40;;;;;;;10.93;6.72;;;4.20;99.90;;;;;;5053287;28;20369;-78
2021/03/23 00:36:07;;;;;;;11.80;7.70;;;4.20;99.90;;;;;;5053462;28;20235;-78
2021/03/23 00:38:36;;;;;;;7.90;6.15;;;4.20;99.90;;;;;;5055432;28;20211;-77
2021/03/23 00:41:03;;;;;;;9.18;6.75;;;4.20;99.90;;;;;;5065630;28;20220;-78
2021/03/23 00:43:29;;;;;;;8.95;6.32;;;4.20;99.90;;;;;;5067961;28;20208;-79
2021/03/23 00:45:55;;;;;;;12.90;7.32;;;4.20;99.90;;;;;;5064496;28;20544;-78
2021/03/23 00:48:22;;;;;;;11.23;6.72;;;4.10;99.90;;;;;;5062757;28;20213;-78
2021/03/23 00:50:49;;;;;;;9.07;6.68;;;4.10;99.90;;;;;;5058477;28;20731;-79
2021/03/23 00:53:16;;;;;;;12.75;7.80;;;4.10;99.90;;;;;;5054424;28;20263;-78
2021/03/23 00:55:42;;;;;;;12.85;7.28;;;4.10;99.90;;;;;;5054341;28;20205;-79
2021/03/23 00:58:08;;;;;;;12.93;7.68;;;4.10;99.90;;;;;;5053708;28;20201;-78
2021/03/23 01:00:35;;;;;;;12.20;7.30;;;4.10;99.90;;;;;;5053040;28;20209;-79
2021/03/23 01:03:01;;;;;;;14.90;8.02;;;4.10;99.90;;;;;;5054591;28;20205;-78
2021/03/23 01:05:30;;;;;;;14.77;7.60;;;4.10;99.90;;;;;;5053173;28;20201;-78
2021/03/23 01:07:57;;;;;;;13.20;7.45;;;4.10;99.90;;;;;;5053866;28;20287;-79
2021/03/23 01:10:26;;;;;;;11.95;8.32;;;4.10;99.90;;;;;;5052804;28;20623;-79
2021/03/23 01:12:52;;;;;;;16.58;8.77;;;4.10;99.90;;;;;;5052992;28;20224;-79
2021/03/23 01:15:22;;;;;;;10.50;8.23;;;4.10;99.90;;;;;;5054140;28;20205;-79
2021/03/23 01:17:48;;;;;;;12.25;8.30;;;4.10;99.90;;;;;;5054290;28;20250;-79
2021/03/23 01:20:16;;;;;;;10.68;7.07;;;4.10;99.90;;;;;;5052794;28;20200;-80
2021/03/23 01:22:42;;;;;;;13.70;7.90;;;4.20;99.90;;;;;;5054093;28;20716;-78
2021/03/23 01:25:11;;;;;;;14.90;8.40;;;4.20;99.90;;;;;;5051988;28;20205;-78
2021/03/23 01:27:37;;;;;;;13.73;8.25;;;4.10;99.90;;;;;;5053503;28;20205;-77
2021/03/23 01:30:05;;;;;;;14.60;7.55;;;4.10;99.90;;;;;;5049017;28;20232;-77
2021/03/23 01:32:32;;;;;;;11.15;8.05;;;4.10;99.90;;;;;;5050272;28;20221;-78
2021/03/23 01:34:58;;;;;;;13.60;8.27;;;4.20;99.90;;;;;;5051289;28;20275;-78
2021/03/23 01:37:24;;;;;;;15.52;7.50;;;4.10;99.90;;;;;;5051607;28;20212;-79
2021/03/23 01:39:50;;;;;;;14.65;9.10;;;4.10;99.90;;;;;;5056521;28;20201;-79
2021/03/23 01:42:19;;;;;;;15.48;8.57;;;4.10;99.90;;;;;;5057648;28;20231;-79
2021/03/23 01:45:07;;;;;;;12.25;8.13;;;4.10;99.90;;;;;;5057184;28;20213;-79
2021/03/23 01:47:33;;;;;;;13.20;8.73;;;4.00;99.90;;;;;;5057590;28;20679;-79
2021/03/23 01:49:59;;;;;;;14.35;8.40;;;4.00;99.90;;;;;;5056330;28;20237;-79
2021/03/23 01:52:29;;;;;;;15.35;9.20;;;4.10;99.90;;;;;;5058091;28;20310;-79
2021/03/23 01:54:59;;;;;;;15.10;9.13;;;4.00;99.90;;;;;;5059031;28;20208;-78
2021/03/23 01:57:28;;;;;;;13.13;8.75;;;4.10;99.90;;;;;;5056257;28;20209;-79
2021/03/23 01:59:57;;;;;;;13.20;9.43;;;4.10;99.90;;;;;;5057174;28;20201;-78
2021/03/23 02:02:26;;;;;;;14.77;9.73;;;4.10;99.90;;;;;;5055947;28;20221;-78
2021/03/23 02:04:53;;;;;;;14.63;9.43;;;4.10;99.90;;;;;;5057487;28;20208;-79
2021/03/23 02:07:19;;;;;;;14.10;8.80;;;4.10;99.90;;;;;;5057766;28;20266;-79
2021/03/23 02:09:46;;;;;;;14.15;8.80;;;4.10;99.90;;;;;;5057922;28;20283;-79
2021/03/23 02:12:15;;;;;;;17.67;9.48;;;4.10;99.90;;;;;;5057345;28;20232;-78
2021/03/23 02:14:44;;;;;;;16.65;8.90;;;4.00;99.90;;;;;;5056016;28;20205;-79
2021/03/23 02:17:19;;;;;;;13.50;8.82;;;4.10;99.90;;;;;;5056128;28;20200;-78
2021/03/23 02:19:45;;;;;;;15.75;10.40;;;4.10;99.90;;;;;;5057144;28;20192;-79
2021/03/23 02:22:23;;;;;;;15.65;9.77;;;4.10;99.90;;;;;;5057381;28;20225;-79
2021/03/23 02:24:49;;;;;;;16.95;10.98;;;4.10;99.90;;;;;;5056990;28;20686;-79
2021/03/23 02:27:17;;;;;;;15.52;10.57;;;4.10;99.90;;;;;;5057722;28;20668;-79
2021/03/23 02:29:44;;;;;;;20.10;12.02;;;4.10;99.90;;;;;;5057631;28;20228;-78
2021/03/23 02:32:10;;;;;;;20.90;11.60;;;4.10;99.90;;;;;;5058133;28;20229;-79
2021/03/23 02:34:37;;;;;;;18.42;11.80;;;4.10;99.90;;;;;;5055890;28;20205;-79
2021/03/23 02:37:03;;;;;;;20.55;11.88;;;4.10;99.90;;;;;;5055577;28;20209;-79
2021/03/23 02:39:33;;;;;;;21.13;11.52;;;4.10;99.90;;;;;;5054729;28;20199;-77
2021/03/23 02:41:59;;;;;;;21.20;12.50;;;4.10;99.90;;;;;;5055033;28;20229;-79
2021/03/23 02:44:27;;;;;;;17.33;11.25;;;4.10;99.90;;;;;;5055457;28;20272;-79
2021/03/23 02:46:54;;;;;;;24.15;13.45;;;4.10;99.90;;;;;;5055728;28;20204;-79
2021/03/23 02:49:20;;;;;;;19.02;12.20;;;4.10;99.90;;;;;;5055491;28;20287;-79
2021/03/23 02:51:49;;;;;;;25.38;12.13;;;4.10;99.90;;;;;;5055295;28;20217;-79
2021/03/23 02:54:15;;;;;;;17.42;12.70;;;4.10;99.90;;;;;;5054448;28;20216;-78
2021/03/23 02:56:43;;;;;;;21.40;14.65;;;4.10;99.90;;;;;;5054801;28;20626;-78
2021/03/23 02:59:09;;;;;;;26.00;13.95;;;4.10;99.90;;;;;;5054872;28;20212;-79
2021/03/23 03:01:35;;;;;;;25.52;14.35;;;4.10;99.90;;;;;;5055190;28;20229;-78
2021/03/23 03:04:04;;;;;;;23.52;12.77;;;4.10;99.90;;;;;;5054161;28;20254;-77
2021/03/23 03:06:30;;;;;;;24.25;14.18;;;4.10;99.90;;;;;;5053855;28;20676;-78
2021/03/23 03:08:57;;;;;;;24.98;15.20;;;4.10;99.90;;;;;;5053636;28;20657;-79
2021/03/23 03:11:23;;;;;;;22.10;14.85;;;4.10;99.90;;;;;;5054602;28;20252;-79
2021/03/23 03:13:51;;;;;;;22.08;14.98;;;4.00;99.90;;;;;;5055211;28;20618;-78
2021/03/23 03:16:17;;;;;;;24.52;13.05;;;4.00;99.90;;;;;;5053558;28;20212;-79
2021/03/23 03:18:44;;;;;;;25.75;15.18;;;4.00;99.90;;;;;;5054310;28;20292;-79
2021/03/23 03:21:10;;;;;;;29.10;15.27;;;4.00;99.90;;;;;;5053609;28;20221;-78
2021/03/23 03:23:37;;;;;;;23.30;15.23;;;4.10;99.90;;;;;;5055242;28;20212;-80
2021/03/23 03:26:04;;;;;;;27.35;15.30;;;4.10;99.90;;;;;;5054234;28;20205;-79
2021/03/23 03:28:31;;;;;;;25.55;14.32;;;4.10;99.90;;;;;;5050717;28;20201;-78
2021/03/23 03:30:58;;;;;;;23.40;13.57;;;4.10;99.90;;;;;;5051929;28;20221;-78
2021/03/23 03:33:25;;;;;;;23.45;15.88;;;4.00;99.90;;;;;;5052861;28;20246;-78
2021/03/23 03:35:52;;;;;;;28.58;15.98;;;4.00;99.90;;;;;;5053209;28;20224;-79
2021/03/23 03:38:20;;;;;;;22.92;15.68;;;4.00;99.90;;;;;;5054239;28;20205;-79
2021/03/23 03:40:49;;;;;;;22.58;15.27;;;4.00;99.90;;;;;;5053694;28;20197;-78
2021/03/23 03:43:17;;;;;;;24.30;14.70;;;4.00;99.90;;;;;;5054331;28;20197;-79
2021/03/23 03:45:44;;;;;;;25.42;13.85;;;4.00;99.90;;;;;;5054353;28;20259;-79
2021/03/23 03:48:11;;;;;;;28.50;15.70;;;4.00;99.90;;;;;;5055327;28;20201;-79
2021/03/23 03:50:38;;;;;;;26.35;15.43;;;4.00;99.90;;;;;;5054145;28;20235;-79
2021/03/23 03:53:04;;;;;;;23.75;13.10;;;4.00;99.90;;;;;;5053860;28;20960;-79
2021/03/23 03:55:34;;;;;;;25.80;14.77;;;4.00;99.90;;;;;;5054500;28;20228;-79
2021/03/23 03:58:00;;;;;;;24.90;14.23;;;4.00;99.90;;;;;;5054525;28;20205;-78
2021/03/23 04:00:30;;;;;;;27.60;18.02;;;4.00;99.90;;;;;;5050973;28;20201;-79
2021/03/23 04:02:57;;;;;;;22.67;15.55;;;4.00;99.90;;;;;;5054445;28;20229;-79
2021/03/23 04:05:27;;;;;;;27.67;16.30;;;4.00;99.90;;;;;;5052903;28;20209;-78
2021/03/23 04:07:53;;;;;;;22.13;14.23;;;3.90;99.90;;;;;;5052957;28;20205;-79
2021/03/23 04:10:20;;;;;;;26.80;15.10;;;4.00;99.90;;;;;;5052464;28;20233;-79
2021/03/23 04:12:47;;;;;;;24.27;14.52;;;4.00;99.90;;;;;;5052897;28;20221;-79
2021/03/23 04:15:16;;;;;;;25.30;14.30;;;4.00;99.90;;;;;;5052669;28;20212;-79
2021/03/23 04:17:43;;;;;;;22.33;14.90;;;4.00;99.90;;;;;;5053175;28;20223;-79
2021/03/23 04:20:10;;;;;;;21.58;14.43;;;4.00;99.90;;;;;;5051514;28;20209;-79
2021/03/23 04:22:39;;;;;;;23.25;14.30;;;3.90;99.90;;;;;;5053109;28;20224;-79
2021/03/23 04:25:07;;;;;;;24.30;14.60;;;3.90;99.90;;;;;;5053448;28;20205;-79
2021/03/23 04:27:33;;;;;;;24.13;13.57;;;3.90;99.90;;;;;;5053825;28;20247;-80
2021/03/23 04:29:59;;;;;;;24.90;16.48;;;3.90;99.90;;;;;;5054425;28;20458;-78
2021/03/23 04:32:25;;;;;;;26.10;15.18;;;3.90;99.90;;;;;;5054075;28;20526;-78
2021/03/23 04:34:52;;;;;;;23.35;13.27;;;3.90;99.90;;;;;;5051429;28;20273;-79
2021/03/23 04:37:18;;;;;;;25.38;14.82;;;3.90;99.90;;;;;;5020355;28;20253;-78
2021/03/23 04:39:46;;;;;;;24.20;14.30;;;3.80;99.90;;;;;;5011221;28;20195;-78
2021/03/23 04:42:12;;;;;;;20.88;13.20;;;3.90;99.90;;;;;;5011542;28;20500;-80
2021/03/23 04:44:38;;;;;;;23.70;15.25;;;3.90;99.90;;;;;;5049031;28;20235;-79
2021/03/23 04:47:05;;;;;;;24.85;13.80;;;3.90;99.90;;;;;;5051689;28;20242;-78
2021/03/23 04:49:31;;;;;;;19.63;13.35;;;3.90;99.90;;;;;;5048899;28;20209;-77
2021/03/23 04:51:58;;;;;;;21.38;13.45;;;3.80;99.90;;;;;;5048960;28;20232;-77
2021/03/23 04:54:24;;;;;;;22.35;14.27;;;3.80;99.90;;;;;;5049031;28;20213;-77
2021/03/23 04:56:52;;;;;;;25.45;14.93;;;3.80;99.90;;;;;;5049285;28;20307;-77
2021/03/23 04:59:18;;;;;;;24.63;14.18;;;3.80;99.90;;;;;;5049124;28;20212;-77
2021/03/23 05:01:44;;;;;;;26.27;14.32;;;3.80;99.90;;;;;;5022154;28;20222;-77
2021/03/23 05:04:13;;;;;;;23.92;14.55;;;3.80;99.90;;;;;;5025995;28;20297;-76
2021/03/23 05:06:40;;;;;;;21.95;12.75;;;3.80;99.90;;;;;;5037899;28;20296;-77
2021/03/23 05:09:06;;;;;;;21.27;13.98;;;3.80;99.90;;;;;;5011331;28;20212;-76
2021/03/23 05:11:34;;;;;;;23.42;14.02;;;3.80;99.90;;;;;;5009137;28;20736;-77
2021/03/23 05:14:03;;;;;;;25.48;14.30;;;3.80;99.90;;;;;;5012560;28;20213;-77
2021/03/23 05:16:30;;;;;;;20.95;13.98;;;3.90;99.90;;;;;;5023659;28;20295;-77
2021/03/23 05:18:56;;;;;;;21.75;13.48;;;3.80;99.90;;;;;;5052916;28;20236;-77
2021/03/23 05:21:23;;;;;;;24.08;13.77;;;3.80;99.90;;;;;;5052025;28;20217;-78
2021/03/23 05:23:52;;;;;;;21.42;14.02;;;3.80;99.90;;;;;;5053309;28;20253;-77
2021/03/23 05:26:18;;;;;;;23.60;14.57;;;3.90;99.90;;;;;;5052681;28;20197;-77
2021/03/23 05:28:47;;;;;;;23.25;14.07;;;3.90;99.90;;;;;;5053134;28;20204;-75
2021/03/23 05:31:15;;;;;;;22.13;13.32;;;3.90;99.90;;;;;;5051835;28;20228;-76
2021/03/23 05:33:41;;;;;;;26.83;13.82;;;3.90;99.90;;;;;;5051811;28;20223;-76
2021/03/23 05:36:08;;;;;;;25.27;14.30;;;3.90;99.90;;;;;;5052887;28;20201;-77
2021/03/23 05:38:34;;;;;;;25.90;14.27;;;3.90;99.90;;;;;;5051863;28;20556;-75
2021/03/23 05:41:05;;;;;;;22.98;13.70;;;3.90;99.90;;;;;;5052269;28;20217;-77
2021/03/23 05:43:54;;;;;;;23.45;12.75;;;3.90;99.90;;;;;;5051929;28;20231;-77
2021/03/23 05:46:29;;;;;;;19.95;12.55;;;4.00;99.90;;;;;;5050888;28;20255;-76
2021/03/23 05:49:06;;;;;;;20.65;13.70;;;4.00;99.90;;;;;;5051586;28;20211;-76
2021/03/23 05:51:39;;;;;;;19.63;13.13;;;4.00;99.90;;;;;;5052089;28;20243;-77
2021/03/23 05:54:15;;;;;;;23.73;13.82;;;4.10;99.90;;;;;;5127780;22;20236;-70
2021/03/23 05:56:43;;;;;;;22.02;12.80;;;4.10;99.90;;;;;;5063312;28;20473;-71
2021/03/23 05:59:14;;;;;;;23.52;13.80;;;4.00;99.90;;;;;;5051067;28;20237;-71
2021/03/23 06:01:47;;;;;;;19.20;12.65;;;3.90;99.90;;;;;;5051469;28;20566;-70
2021/03/23 06:04:21;;;;;;;22.73;14.52;;;4.00;99.90;;;;;;5051692;28;20295;-70
2021/03/23 06:06:55;;;;;;;19.67;13.18;;;4.00;99.90;;;;;;5051352;28;20296;-70
2021/03/23 06:09:28;;;;;;;19.80;13.23;;;3.90;99.90;;;;;;5050519;28;20585;-70
2021/03/23 06:12:02;;;;;;;27.27;16.10;;;3.90;99.90;;;;;;5051385;28;20265;-71
2021/03/23 06:14:43;;;;;;;23.08;13.45;;;4.00;99.90;;;;;;5050889;28;20196;-71
2021/03/23 06:17:19;;;;;;;25.70;15.50;;;4.10;99.90;;;;;;5051062;28;20205;-70
2021/03/23 06:19:48;;;;;;;25.55;15.48;;;4.20;99.90;;;;;;5051033;28;20595;-70
2021/03/23 06:22:33;;;;;;;24.13;15.52;;;4.20;99.90;;;;;;5062962;28;20268;-70
2021/03/23 06:25:05;;;;;;;22.90;15.40;;;4.30;99.90;;;;;;5069679;28;20205;-70
2021/03/23 06:27:39;;;;;;;26.55;15.65;;;4.30;99.90;;;;;;5070433;28;20290;-70
2021/03/23 06:30:34;;;;;;;26.25;15.98;;;4.30;99.90;;;;;;5069947;28;20486;-70
2021/03/23 06:33:01;;;;;;;32.40;16.23;;;4.30;99.90;;;;;;5069547;28;20287;-70
2021/03/23 06:35:40;;;;;;;25.33;15.15;;;4.40;99.90;;;;;;5069140;28;20249;-70
2021/03/23 06:38:20;;;;;;;25.63;15.95;;;4.40;99.90;;;;;;5070188;28;20282;-70
2021/03/23 06:41:19;;;;;;;27.00;14.95;;;4.40;99.90;;;;;;5069188;28;20648;-70
2021/03/23 06:43:47;;;;;;;29.15;16.30;;;4.40;99.90;;;;;;5070226;28;20201;-70
2021/03/23 06:46:42;;;;;;;25.05;15.18;;;4.50;99.90;;;;;;5068824;28;20207;-70
2021/03/23 06:49:29;;;;;;;26.60;14.25;;;4.60;99.90;;;;;;5071286;28;20202;-70
2021/03/23 06:52:21;;;;;;;28.58;15.15;;;4.60;99.90;;;;;;5076066;28;20228;-69
2021/03/23 06:55:21;;;;;;;25.75;15.68;;;4.60;99.90;;;;;;5070507;28;20585;-69
2021/03/23 06:57:47;;;;;;;26.13;16.63;;;4.60;99.90;;;;;;5070387;28;20924;-69
2021/03/23 07:00:23;;;;;;;26.67;15.10;;;4.60;99.90;;;;;;5069011;28;20205;-69
2021/03/23 07:02:51;;;;;;;25.05;14.95;;;4.70;99.90;;;;;;5070153;28;20571;-70
2021/03/23 07:05:32;;;;;;;27.35;16.73;;;4.70;99.90;;;;;;5069782;28;20617;-71
2021/03/23 07:08:00;;;;;;;25.67;16.02;;;4.70;99.90;;;;;;5070141;28;20208;-70
2021/03/23 07:10:28;;;;;;;30.98;14.65;;;4.80;99.90;;;;;;5069239;28;20265;-70
2021/03/23 07:12:55;;;;;;;25.90;16.90;;;4.80;99.90;;;;;;5069083;28;20220;-70
2021/03/23 07:15:23;;;;;;;29.48;16.27;;;4.90;99.90;;;;;;5069527;28;20196;-70
2021/03/23 07:17:51;;;;;;;28.98;16.77;;;5.00;99.90;;;;;;5069476;28;20571;-70
2021/03/23 07:20:38;;;;;;;23.48;15.65;;;5.00;99.90;;;;;;5076599;28;20199;-70
2021/03/23 07:23:27;;;;;;;25.83;16.00;;;5.10;99.90;;;;;;5070212;28;20200;-70
2021/03/23 07:25:54;;;;;;;32.40;17.25;;;5.20;99.90;;;;;;5069893;28;20262;-70
2021/03/23 07:28:29;;;;;;;27.45;16.38;;;5.30;99.90;;;;;;5069557;28;20204;-71
2021/03/23 07:31:05;;;;;;;26.05;16.55;;;5.30;99.90;;;;;;5068658;28;20625;-71
2021/03/23 07:33:40;;;;;;;27.05;15.68;;;5.40;99.90;;;;;;5069435;28;20204;-71
2021/03/23 07:36:13;;;;;;;25.77;14.40;;;5.30;99.90;;;;;;5069715;28;20196;-71
2021/03/23 07:38:43;;;;;;;23.98;15.50;;;5.40;99.90;;;;;;5068963;28;20204;-70
2021/03/23 07:41:20;;;;;;;21.77;15.65;;;5.50;99.90;;;;;;5087624;28;20216;-71
2021/03/23 07:43:50;;;;;;;24.75;14.57;;;5.50;99.90;;;;;;5067890;28;20199;-70
2021/03/23 07:46:23;;;;;;;25.60;14.93;;;5.60;99.90;;;;;;5069345;28;20204;-70
2021/03/23 07:48:55;;;;;;;26.13;14.80;;;5.70;99.90;;;;;;5069099;28;20212;-70
2021/03/23 07:51:31;;;;;;;25.08;15.68;;;5.70;99.90;;;;;;5069113;28;20221;-70
2021/03/23 07:54:14;;;;;;;22.73;14.38;;;5.80;99.90;;;;;;5069289;28;20203;-69
2021/03/23 07:56:54;;;;;;;23.85;15.05;;;5.80;99.90;;;;;;5069759;28;20584;-70
2021/03/23 07:59:30;;;;;;;25.65;14.95;;;5.90;99.90;;;;;;5069309;28;20203;-70
2021/03/23 08:02:05;;;;;;;26.52;16.80;;;5.90;99.90;;;;;;5069214;28;20216;-70
2021/03/23 08:04:44;;;;;;;26.60;15.48;;;6.00;99.90;;;;;;5069751;28;20242;-71
2021/03/23 08:07:21;;;;;;;23.17;15.23;;;6.10;99.90;;;;;;5070729;28;20322;-70
2021/03/23 08:10:04;;;;;;;32.28;16.27;;;6.20;99.90;;;;;;5070188;28;20204;-71
2021/03/23 08:13:05;;;;;;;24.88;16.17;;;6.20;99.90;;;;;;5070390;28;20633;-71
2021/03/23 08:16:10;;;;;;;24.90;15.57;;;6.40;99.90;;;;;;5071128;28;20207;-71
2021/03/23 08:19:20;;;;;;;26.98;16.50;;;6.40;99.90;;;;;;5093991;28;20299;-69
2021/03/23 08:22:15;;;;;;;23.55;15.20;;;6.50;99.90;;;;;;5223569;22;20212;-69
2021/03/23 08:24:58;;;;;;;22.42;15.13;;;6.60;99.90;;;;;;5074277;28;20208;-69
2021/03/23 08:27:55;;;;;;;24.70;14.82;;;6.60;99.90;;;;;;5066487;28;20209;-69
2021/03/23 08:30:33;;;;;;;24.85;15.23;;;6.70;99.90;;;;;;5049217;28;20220;-70
2021/03/23 08:33:08;;;;;;;23.02;15.57;;;6.80;99.90;;;;;;5049519;28;20205;-70
2021/03/23 08:35:56;;;;;;;21.92;13.77;;;6.80;99.90;;;;;;5049045;28;20203;-70
2021/03/23 08:38:48;;;;;;;18.45;12.35;;;6.90;99.90;;;;;;5048493;28;20741;-69
2021/03/23 08:41:25;;;;;;;18.63;11.90;;;7.00;99.90;;;;;;5046625;28;20267;-70
2021/03/23 08:43:53;;;;;;;23.52;12.48;;;7.20;99.90;;;;;;5048821;28;20212;-70
2021/03/23 08:46:21;;;;;;;22.67;14.63;;;7.30;99.90;;;;;;5048454;28;20204;-70
2021/03/23 08:48:51;;;;;;;23.33;14.07;;;7.30;99.90;;;;;;5047874;28;20205;-70
2021/03/23 08:51:23;;;;;;;22.30;13.57;;;7.40;99.90;;;;;;5048155;28;20255;-70
2021/03/23 08:53:56;;;;;;;22.45;13.02;;;7.30;99.90;;;;;;5048519;28;20201;-68
2021/03/23 08:56:58;;;;;;;19.27;12.15;;;7.40;99.90;;;;;;5048256;28;20245;-70
2021/03/23 08:59:41;;;;;;;20.23;13.15;;;7.50;99.90;;;;;;5047682;28;20206;-70
2021/03/23 09:02:46;;;;;;;18.67;11.85;;;7.70;99.90;;;;;;5048132;28;20235;-70
2021/03/23 09:05:46;;;;;;;19.55;12.18;;;7.70;99.90;;;;;;5049474;28;20691;-70
2021/03/23 09:08:18;;;;;;;14.90;11.00;;;7.80;99.90;;;;;;5048371;28;20203;-70
2021/03/23 09:10:51;;;;;;;16.35;10.98;;;7.80;99.90;;;;;;5048250;28;20231;-70
2021/03/23 09:13:55;;;;;;;19.52;12.45;;;7.80;99.90;;;;;;5048162;28;20247;-70
2021/03/23 09:16:58;;;;;;;16.30;10.38;;;7.90;99.90;;;;;;5047349;28;20213;-69
2021/03/23 09:19:34;;;;;;;13.13;9.40;;;8.10;99.90;;;;;;5026500;28;20212;-70
2021/03/23 09:22:26;;;;;;;17.17;9.95;;;8.10;99.90;;;;;;5048155;28;20233;-70
2021/03/23 09:25:18;;;;;;;17.25;9.73;;;8.00;99.90;;;;;;5048195;28;20205;-70
2021/03/23 09:28:00;;;;;;;13.73;9.43;;;7.70;99.90;;;;;;5048593;28;20204;-70
2021/03/23 09:30:39;;;;;;;13.55;9.73;;;7.90;99.90;;;;;;5047512;28;20225;-69
2021/03/23 09:33:18;;;;;;;14.95;9.73;;;8.00;99.90;;;;;;5048570;28;20208;-70
2021/03/23 09:36:20;;;;;;;16.42;10.30;;;8.10;99.90;;;;;;5048195;28;20205;-70
2021/03/23 09:38:48;;;;;;;13.82;9.00;;;8.10;99.90;;;;;;5023838;28;20274;-70
2021/03/23 09:41:28;;;;;;;12.27;9.10;;;8.10;99.90;;;;;;5047400;28;20220;-70
2021/03/23 09:44:34;;;;;;;12.80;8.20;;;8.10;99.90;;;;;;5048153;28;20201;-70
2021/03/23 09:47:01;;;;;;;12.82;8.38;;;8.10;99.90;;;;;;5048465;28;20208;-70
2021/03/23 09:49:31;;;;;;;13.27;9.10;;;8.00;99.90;;;;;;5047504;28;20201;-70
2021/03/23 09:52:09;;;;;;;13.15;8.02;;;8.00;99.90;;;;;;5047920;28;20232;-68
2021/03/23 09:54:37;;;;;;;10.90;7.75;;;8.00;99.90;;;;;;5047700;28;20255;-69
2021/03/23 09:57:11;;;;;;;11.40;7.63;;;8.00;99.90;;;;;;5046875;28;20204;-70
2021/03/23 09:59:44;;;;;;;9.50;6.55;;;7.90;99.90;;;;;;5049572;28;20200;-69
2021/03/23 10:02:21;;;;;;;9.68;6.70;;;7.90;99.90;;;;;;5051856;28;20723;-70
2021/03/23 10:04:49;;;;;;;9.63;7.13;;;8.00;99.90;;;;;;5051385;28;20585;-70
2021/03/23 10:07:28;;;;;;;10.25;6.93;;;8.20;99.90;;;;;;5051469;28;20209;-70
2021/03/23 10:09:54;;;;;;;9.10;6.55;;;8.20;99.90;;;;;;5051114;28;20207;-68
2021/03/23 10:12:29;;;;;;;8.13;6.45;;;8.20;99.90;;;;;;5051040;28;20411;-70
2021/03/23 10:14:56;;;;;;;7.65;5.15;;;8.20;99.90;;;;;;5051463;28;20663;-70
2021/03/23 10:17:24;;;;;;;9.80;6.80;;;8.20;99.90;;;;;;5050699;28;20205;-70
2021/03/23 10:19:52;;;;;;;9.10;6.20;;;8.10;99.90;;;;;;5051042;28;20207;-70
2021/03/23 10:22:28;;;;;;;8.80;5.15;;;8.00;99.90;;;;;;5050567;28;20232;-70
2021/03/23 10:24:56;;;;;;;11.05;6.20;;;7.90;99.90;;;;;;5051059;28;20618;-70
2021/03/23 10:27:26;;;;;;;8.65;5.53;;;7.70;99.90;;;;;;5051229;28;20216;-69
2021/03/23 10:30:06;;;;;;;7.70;5.13;;;7.70;99.90;;;;;;5050183;28;20746;-69
2021/03/23 10:32:45;;;;;;;8.60;5.60;;;7.70;99.90;;;;;;5050247;28;20303;-69
2021/03/23 10:35:16;;;;;;;7.88;5.75;;;7.70;99.90;;;;;;5050708;28;20208;-70
2021/03/23 10:37:42;;;;;;;7.20;5.05;;;7.80;99.90;;;;;;5051179;28;20209;-69
2021/03/23 10:40:29;;;;;;;9.23;5.55;;;7.80;99.90;;;;;;5050338;28;20224;-69
2021/03/23 10:42:56;;;;;;;4.65;4.18;;;7.70;99.60;;;;;;5049939;28;20715;-70
2021/03/23 10:45:28;;;;;;;5.07;3.85;;;7.70;99.90;;;;;;5050373;28;20209;-69
2021/03/23 10:48:16;;;;;;;6.25;4.13;;;7.70;99.90;;;;;;5051935;28;20208;-69
2021/03/23 10:50:45;;;;;;;6.55;4.70;;;7.70;99.70;;;;;;5049915;28;20225;-70
2021/03/23 10:53:20;;;;;;;6.82;5.18;;;7.60;99.60;;;;;;5050193;28;20197;-70
2021/03/23 10:55:48;;;;;;;5.57;4.22;;;7.70;99.70;;;;;;5050829;28;20223;-69
2021/03/23 10:58:24;;;;;;;6.03;4.70;;;7.70;98.80;;;;;;5050429;28;20224;-70
2021/03/23 11:01:07;;;;;;;5.25;3.72;;;7.70;98.90;;;;;;5050064;28;20266;-70
2021/03/23 11:03:34;;;;;;;5.25;4.10;;;7.80;99.80;;;;;;5050173;28;20520;-70
2021/03/23 11:06:01;;;;;;;7.53;5.38;;;7.80;98.80;;;;;;5049935;28;20201;-69
2021/03/23 11:08:28;;;;;;;5.65;4.53;;;7.90;99.00;;;;;;5050004;28;20204;-70
2021/03/23 11:10:57;;;;;;;6.53;4.70;;;7.90;98.40;;;;;;5049290;28;20232;-69
2021/03/23 11:13:23;;;;;;;5.85;4.22;;;7.90;97.90;;;;;;5049778;28;20694;-70
2021/03/23 11:15:50;;;;;;;5.63;4.40;;;7.80;98.30;;;;;;5050145;28;20197;-70
2021/03/23 11:18:22;;;;;;;7.43;4.43;;;7.90;98.40;;;;;;5049039;28;20637;-69
2021/03/23 11:20:51;;;;;;;6.07;4.45;;;8.00;98.60;;;;;;5049263;28;20205;-69
2021/03/23 11:23:35;;;;;;;7.28;4.65;;;8.00;98.70;;;;;;5049675;28;20205;-68
2021/03/23 11:26:02;;;;;;;8.07;5.18;;;8.10;98.50;;;;;;5049925;28;20672;-68
2021/03/23 11:28:30;;;;;;;5.10;4.20;;;8.10;97.70;;;;;;5049360;28;20296;-68
2021/03/23 11:30:57;;;;;;;5.97;4.50;;;8.10;98.00;;;;;;5048962;28;20604;-70
2021/03/23 11:33:24;;;;;;;6.40;4.95;;;8.10;98.00;;;;;;5049218;28;20239;-68
2021/03/23 11:35:52;;;;;;;13.23;8.00;;;8.20;98.20;;;;;;5049428;28;20201;-69
2021/03/23 11:38:19;;;;;;;5.93;5.25;;;8.10;98.30;;;;;;5049202;28;20201;-68
2021/03/23 11:40:45;;;;;;;8.30;5.88;;;8.00;98.40;;;;;;5048888;28;20660;-70
2021/03/23 11:43:18;;;;;;;6.70;5.38;;;8.00;98.00;;;;;;5049044;28;20668;-70
2021/03/23 11:45:46;;;;;;;12.27;7.30;;;8.00;98.10;;;;;;5049264;28;20678;-69
2021/03/23 11:48:14;;;;;;;15.90;8.00;;;8.00;98.10;;;;;;5049588;28;20201;-68
2021/03/23 11:50:43;;;;;;;7.53;5.32;;;8.10;98.40;;;;;;5048865;28;20316;-70
2021/03/23 11:53:11;;;;;;;7.05;5.25;;;8.00;98.50;;;;;;5049613;28;20201;-71
2021/03/23 11:55:41;;;;;;;7.30;5.47;;;8.00;98.60;;;;;;5129083;22;20565;-73
2021/03/23 11:58:08;;;;;;;9.60;5.53;;;8.10;98.30;;;;;;5068963;28;20224;-74
2021/03/23 12:00:35;;;;;;;6.35;4.32;;;8.10;97.90;;;;;;5068595;28;20213;-72
2021/03/23 12:03:03;;;;;;;7.13;5.35;;;8.20;98.00;;;;;;5069490;28;20235;-74
2021/03/23 12:05:31;;;;;;;7.25;4.90;;;8.20;98.40;;;;;;5069418;28;20287;-73
2021/03/23 12:08:16;;;;;;;8.20;4.88;;;8.20;98.40;;;;;;5068791;28;20277;-72
2021/03/23 12:10:49;;;;;;;8.70;5.47;;;8.20;98.30;;;;;;5068522;28;20223;-73
2021/03/23 12:13:22;;;;;;;7.05;5.30;;;8.10;98.40;;;;;;5068934;28;20203;-73
2021/03/23 12:15:54;;;;;;;9.20;5.70;;;8.10;98.60;;;;;;5068873;28;20200;-72
2021/03/23 12:18:22;;;;;;;7.30;5.28;;;8.00;98.60;;;;;;5069056;28;20302;-73
2021/03/23 12:20:58;;;;;;;6.70;5.40;;;8.00;98.60;;;;;;5068346;28;20205;-73
2021/03/23 12:23:26;;;;;;;10.10;5.95;;;8.00;98.30;;;;;;5068507;28;20211;-74
2021/03/23 12:25:53;;;;;;;8.25;6.75;;;8.10;98.60;;;;;;5069344;28;20258;-74
2021/03/23 12:28:19;;;;;;;9.48;5.93;;;8.10;99.00;;;;;;5069206;28;20204;-74
2021/03/23 12:30:46;;;;;;;6.15;5.10;;;8.10;98.60;;;;;;5068352;28;20223;-74
2021/03/23 12:33:12;;;;;;;8.10;5.57;;;8.10;97.50;;;;;;5068230;28;20204;-74
2021/03/23 12:35:38;;;;;;;6.63;5.53;;;8.10;98.00;;;;;;5069199;28;20572;-74
2021/03/23 12:38:07;;;;;;;8.98;5.80;;;8.20;97.70;;;;;;5068733;28;20595;-74
2021/03/23 12:40:34;;;;;;;14.77;5.65;;;8.20;98.00;;;;;;5068345;28;20204;-73
2021/03/23 12:43:01;;;;;;;8.88;5.97;;;8.20;98.00;;;;;;5068875;28;20500;-73
2021/03/23 12:45:30;;;;;;;7.43;5.90;;;8.20;98.10;;;;;;5067615;28;20200;-73
2021/03/23 12:47:57;;;;;;;8.43;4.82;;;8.10;98.10;;;;;;5068992;28;20226;-73
2021/03/23 12:50:24;;;;;;;9.25;6.28;;;8.10;98.10;;;;;;5068357;28;20261;-73
2021/03/23 12:52:52;;;;;;;8.30;6.70;;;8.20;98.30;;;;;;5068590;28;20727;-74
2021/03/23 12:55:21;;;;;;;9.98;7.05;;;8.10;97.90;;;;;;5068341;28;20680;-73
2021/03/23 12:57:54;;;;;;;6.80;5.68;;;8.10;97.80;;;;;;5068502;28;20215;-73
2021/03/23 13:00:24;;;;;;;8.65;6.07;;;8.20;97.90;;;;;;5068280;28;20675;-74
2021/03/23 13:02:50;;;;;;;8.18;5.80;;;8.20;98.00;;;;;;5068589;28;20224;-74
2021/03/23 13:05:17;;;;;;;8.70;6.22;;;8.20;97.90;;;;;;5068291;28;20208;-74
2021/03/23 13:07:43;;;;;;;6.95;5.50;;;8.20;98.00;;;;;;5069104;28;20234;-74